Time;durP1;ratioP1;P1;durP2;ratioP2;P2;SDS_P1;SDS_P2;PMS_P1;PMS_P2;Temp;Humidity;BMP_temperature;BMP_pressure;BME280_temperature;BME280_humidity;BME280_pressure;Samples;Min_cycle;Max_cycle;Signal;HPM_P1;HPM_P2
2022/07/21 00:02:08;;;;;;;13.50;12.10;;;;;;;;;;5013367;28;20390;-78
2022/07/21 00:04:34;;;;;;;15.63;13.77;;;;;;;;;;5013010;28;20460;-80
2022/07/21 00:07:00;;;;;;;16.63;13.57;;;;;;;;;;4979438;28;20401;-80
2022/07/21 00:09:27;;;;;;;15.37;13.60;;;;;;;;;;5013414;28;20384;-78
2022/07/21 00:11:53;;;;;;;16.93;14.70;;;;;;;;;;5017061;28;20872;-78
2022/07/21 00:14:19;;;;;;;16.67;14.47;;;;;;;;;;5016829;28;20755;-76
2022/07/21 00:16:45;;;;;;;14.50;12.10;;;;;;;;;;5017313;28;20381;-78
2022/07/21 00:19:12;;;;;;;16.40;14.60;;;;;;;;;;4999475;28;20450;-77
2022/07/21 00:21:38;;;;;;;17.33;15.60;;;;;;;;;;5000283;28;20464;-80
2022/07/21 00:24:04;;;;;;;20.47;15.80;;;;;;;;;;5017014;28;20526;-78
2022/07/21 00:26:30;;;;;;;17.20;15.50;;;;;;;;;;5017282;28;20417;-78
2022/07/21 00:28:56;;;;;;;16.97;15.17;;;;;;;;;;5017354;28;20422;-80
2022/07/21 00:31:22;;;;;;;18.73;16.10;;;;;;;;;;4999927;28;20451;-78
2022/07/21 00:33:50;;;;;;;17.40;15.60;;;;;;;;;;5016482;28;20950;-78
2022/07/21 00:36:17;;;;;;;17.23;14.97;;;;;;;;;;5017026;28;20423;-79
2022/07/21 00:38:42;;;;;;;20.97;16.70;;;;;;;;;;5017027;28;20460;-81
2022/07/21 00:41:08;;;;;;;17.40;15.40;;;;;;;;;;5016887;28;20967;-80
2022/07/21 00:43:34;;;;;;;17.90;14.97;;;;;;;;;;5016762;28;20450;-80
2022/07/21 00:46:01;;;;;;;18.33;16.23;;;;;;;;;;5016954;28;20386;-79
2022/07/21 00:48:27;;;;;;;19.93;15.30;;;;;;;;;;4999254;28;20436;-78
2022/07/21 00:50:53;;;;;;;18.53;15.93;;;;;;;;;;5016837;28;20432;-78
2022/07/21 00:53:20;;;;;;;21.57;15.10;;;;;;;;;;5016228;28;20436;-78
2022/07/21 00:55:49;;;;;;;21.50;15.00;;;;;;;;;;4999008;28;20413;-78
2022/07/21 00:58:15;;;;;;;19.23;15.50;;;;;;;;;;5016512;28;20467;-78
2022/07/21 01:00:41;;;;;;;15.73;14.23;;;;;;;;;;5016896;28;20439;-78
2022/07/21 01:03:07;;;;;;;15.90;13.83;;;;;;;;;;4998479;28;20897;-81
2022/07/21 01:05:33;;;;;;;19.13;14.23;;;;;;;;;;4998609;28;20423;-78
2022/07/21 01:08:02;;;;;;;17.07;15.23;;;;;;;;;;4999131;28;20414;-81
2022/07/21 01:10:28;;;;;;;17.87;14.27;;;;;;;;;;5016730;28;20445;-80
2022/07/21 01:12:55;;;;;;;16.10;14.40;;;;;;;;;;5016416;28;20848;-80
2022/07/21 01:15:21;;;;;;;16.90;15.10;;;;;;;;;;5017037;28;20798;-78
2022/07/21 01:17:48;;;;;;;23.20;16.93;;;;;;;;;;5016375;28;20494;-80
2022/07/21 01:20:15;;;;;;;20.23;18.20;;;;;;;;;;5016332;28;20410;-78
2022/07/21 01:22:43;;;;;;;20.97;17.10;;;;;;;;;;5015011;28;20456;-81
2022/07/21 01:25:09;;;;;;;19.97;17.83;;;;;;;;;;5016416;28;20437;-78
2022/07/21 01:27:35;;;;;;;18.13;16.10;;;;;;;;;;5015960;28;20391;-77
2022/07/21 01:30:01;;;;;;;24.60;17.80;;;;;;;;;;5016412;28;20502;-82
2022/07/21 01:32:27;;;;;;;19.97;17.27;;;;;;;;;;5016647;28;20421;-80
2022/07/21 01:34:53;;;;;;;24.27;17.70;;;;;;;;;;5022266;28;20777;-78
2022/07/21 01:37:23;;;;;;;20.83;18.67;;;;;;;;;;5023497;28;20423;-80
2022/07/21 01:42:36;;;;;;;24.70;19.00;;;;;;;;;;5018451;28;20412;-81
2022/07/21 01:45:03;;;;;;;20.67;18.57;;;;;;;;;;4998505;28;20413;-79
2022/07/21 01:47:29;;;;;;;21.70;18.20;;;;;;;;;;5015752;28;20413;-80
2022/07/21 01:49:56;;;;;;;19.03;16.87;;;;;;;;;;5015960;28;20496;-77
2022/07/21 01:52:22;;;;;;;18.33;16.50;;;;;;;;;;5015042;28;20450;-81
2022/07/21 01:54:48;;;;;;;20.13;18.03;;;;;;;;;;5015547;28;20510;-80
2022/07/21 01:57:14;;;;;;;19.33;17.43;;;;;;;;;;5015466;28;20416;-78
2022/07/21 01:59:40;;;;;;;23.60;17.00;;;;;;;;;;4997853;28;20472;-81
2022/07/21 02:02:06;;;;;;;20.80;18.00;;;;;;;;;;5015938;28;20475;-79
2022/07/21 02:04:34;;;;;;;18.43;16.10;;;;;;;;;;5015527;28;20591;-77
2022/07/21 02:07:00;;;;;;;21.10;17.03;;;;;;;;;;4999121;28;20429;-80
2022/07/21 02:09:26;;;;;;;18.30;15.10;;;;;;;;;;5015931;28;20420;-79
2022/07/21 02:11:52;;;;;;;17.70;15.97;;;;;;;;;;5015416;28;20421;-81
2022/07/21 02:14:18;;;;;;;19.00;15.97;;;;;;;;;;5015281;28;20805;-81
2022/07/21 02:16:44;;;;;;;18.07;16.23;;;;;;;;;;4997895;28;20786;-80
2022/07/21 02:19:10;;;;;;;19.70;16.70;;;;;;;;;;5015299;28;20985;-79
2022/07/21 02:21:36;;;;;;;17.70;16.00;;;;;;;;;;5015561;28;20409;-80
2022/07/21 02:24:03;;;;;;;21.40;16.40;;;;;;;;;;5014786;28;20441;-78
2022/07/21 02:26:29;;;;;;;18.07;16.17;;;;;;;;;;5016945;28;20421;-77
2022/07/21 02:28:55;;;;;;;18.87;15.87;;;;;;;;;;4998704;28;20434;-76
2022/07/21 02:31:21;;;;;;;17.50;15.77;;;;;;;;;;5016044;28;20428;-80
2022/07/21 02:33:47;;;;;;;18.63;16.10;;;;;;;;;;5013636;28;20817;-79
2022/07/21 02:36:13;;;;;;;18.00;15.13;;;;;;;;;;5014989;28;20421;-77
2022/07/21 02:38:39;;;;;;;15.57;14.07;;;;;;;;;;4997513;28;20555;-80
2022/07/21 02:41:05;;;;;;;17.77;15.87;;;;;;;;;;5015021;28;20411;-81
2022/07/21 02:43:31;;;;;;;20.70;15.30;;;;;;;;;;4996909;28;20424;-79
2022/07/21 02:45:57;;;;;;;19.93;17.07;;;;;;;;;;5014893;28;20413;-80
2022/07/21 02:48:23;;;;;;;18.60;16.17;;;;;;;;;;5014655;28;20742;-82
2022/07/21 02:50:49;;;;;;;17.73;15.93;;;;;;;;;;5014532;28;20878;-82
2022/07/21 02:53:19;;;;;;;17.80;15.83;;;;;;;;;;5014488;28;20439;-79
2022/07/21 02:55:47;;;;;;;19.23;15.00;;;;;;;;;;5014607;28;20823;-81
2022/07/21 02:58:14;;;;;;;20.63;13.90;;;;;;;;;;5014540;28;20463;-79
2022/07/21 03:00:42;;;;;;;17.90;15.30;;;;;;;;;;5014628;28;20412;-82
2022/07/21 03:03:09;;;;;;;21.63;15.97;;;;;;;;;;4996403;28;20461;-79
2022/07/21 03:05:36;;;;;;;21.63;15.50;;;;;;;;;;5014407;28;20432;-79
2022/07/21 03:08:02;;;;;;;16.77;15.10;;;;;;;;;;5014421;28;20417;-81
2022/07/21 03:10:28;;;;;;;17.83;15.97;;;;;;;;;;5014148;28;20443;-80
2022/07/21 03:12:55;;;;;;;17.33;15.53;;;;;;;;;;5013953;28;21049;-81
2022/07/21 03:15:21;;;;;;;17.60;15.53;;;;;;;;;;5014352;28;20418;-80
2022/07/21 03:17:47;;;;;;;17.20;15.40;;;;;;;;;;5014327;28;20526;-78
2022/07/21 03:20:13;;;;;;;17.17;14.90;;;;;;;;;;5014345;28;20462;-78
2022/07/21 03:22:39;;;;;;;17.70;15.07;;;;;;;;;;5013983;28;20413;-81
2022/07/21 03:25:06;;;;;;;16.40;14.70;;;;;;;;;;5014115;28;20449;-81
2022/07/21 03:27:35;;;;;;;16.73;15.03;;;;;;;;;;5014129;28;20418;-81
2022/07/21 03:30:02;;;;;;;16.90;15.10;;;;;;;;;;4996859;28;20976;-79
2022/07/21 03:32:28;;;;;;;19.90;16.70;;;;;;;;;;5013543;28;20417;-81
2022/07/21 03:34:54;;;;;;;16.77;14.90;;;;;;;;;;5014089;28;20482;-81
2022/07/21 03:37:20;;;;;;;17.27;15.63;;;;;;;;;;4996185;28;20920;-78
2022/07/21 03:39:46;;;;;;;20.10;14.50;;;;;;;;;;5013836;28;20423;-80
2022/07/21 03:42:12;;;;;;;19.93;14.60;;;;;;;;;;5013943;28;20413;-78
2022/07/21 03:44:38;;;;;;;16.10;14.40;;;;;;;;;;5013259;28;20417;-77
2022/07/21 03:47:04;;;;;;;16.87;13.97;;;;;;;;;;5013610;28;20396;-81
2022/07/21 03:49:30;;;;;;;15.73;13.03;;;;;;;;;;5013865;28;20454;-77
2022/07/21 03:51:56;;;;;;;16.10;13.93;;;;;;;;;;5013821;28;20465;-80
2022/07/21 03:54:22;;;;;;;16.67;13.37;;;;;;;;;;4996045;28;20427;-79
2022/07/21 03:56:48;;;;;;;16.20;14.53;;;;;;;;;;4999405;28;20435;-78
2022/07/21 03:59:14;;;;;;;15.47;13.87;;;;;;;;;;5013750;28;20473;-80
2022/07/21 04:01:40;;;;;;;18.83;15.47;;;;;;;;;;5013473;28;20756;-81
2022/07/21 04:04:06;;;;;;;16.57;14.43;;;;;;;;;;4995548;28;20469;-78
2022/07/21 04:06:32;;;;;;;21.27;14.00;;;;;;;;;;5014062;28;20421;-81
2022/07/21 04:08:58;;;;;;;16.17;14.60;;;;;;;;;;5017053;28;20431;-77
2022/07/21 04:11:24;;;;;;;16.57;14.10;;;;;;;;;;5014396;28;20755;-82
2022/07/21 04:13:50;;;;;;;16.47;14.13;;;;;;;;;;5013354;28;20783;-78
2022/07/21 04:16:16;;;;;;;20.00;14.30;;;;;;;;;;5014483;28;20412;-78
2022/07/21 04:18:42;;;;;;;15.10;13.50;;;;;;;;;;5014151;28;20537;-78
2022/07/21 04:21:08;;;;;;;15.10;13.00;;;;;;;;;;5014176;28;20549;-80
2022/07/21 04:23:34;;;;;;;16.30;14.00;;;;;;;;;;5013533;28;20466;-80
2022/07/21 04:26:00;;;;;;;14.97;13.27;;;;;;;;;;4996050;28;20884;-78
2022/07/21 04:28:26;;;;;;;14.77;13.13;;;;;;;;;;5013832;28;20449;-80
2022/07/21 04:30:52;;;;;;;14.23;12.77;;;;;;;;;;5013528;28;20785;-81
2022/07/21 04:33:18;;;;;;;14.27;12.83;;;;;;;;;;4995404;28;20409;-78
2022/07/21 04:35:44;;;;;;;13.77;12.30;;;;;;;;;;5013332;28;20425;-78
2022/07/21 04:38:10;;;;;;;15.80;12.93;;;;;;;;;;5013255;28;20477;-78
2022/07/21 04:40:36;;;;;;;14.07;12.47;;;;;;;;;;5013209;28;20478;-80
2022/07/21 04:43:03;;;;;;;16.10;13.33;;;;;;;;;;5017620;28;20443;-80
2022/07/21 04:45:29;;;;;;;21.63;13.43;;;;;;;;;;5013140;28;20419;-80
2022/07/21 04:47:55;;;;;;;16.20;13.77;;;;;;;;;;5013164;28;20810;-79
2022/07/21 04:50:23;;;;;;;16.43;13.47;;;;;;;;;;5013629;28;20415;-78
2022/07/21 04:52:49;;;;;;;14.33;12.67;;;;;;;;;;5012661;28;20444;-78
2022/07/21 04:55:15;;;;;;;20.87;13.70;;;;;;;;;;5013181;28;20390;-82
2022/07/21 04:57:43;;;;;;;17.90;13.67;;;;;;;;;;4997048;28;20997;-78
2022/07/21 05:00:10;;;;;;;13.47;11.70;;;;;;;;;;4999383;28;20496;-79
2022/07/21 05:02:37;;;;;;;13.60;12.30;;;;;;;;;;5016854;28;20420;-79
2022/07/21 05:05:03;;;;;;;12.63;11.33;;;;;;;;;;5016913;28;20444;-76
2022/07/21 05:07:29;;;;;;;15.80;11.67;;;;;;;;;;5000118;28;20416;-78
2022/07/21 05:09:56;;;;;;;13.23;11.50;;;;;;;;;;5017253;28;20476;-79
2022/07/21 05:12:22;;;;;;;13.70;12.30;;;;;;;;;;5016649;28;20422;-78
2022/07/21 05:14:48;;;;;;;13.63;11.60;;;;;;;;;;5016601;28;20450;-80
2022/07/21 05:17:14;;;;;;;17.30;12.57;;;;;;;;;;5016166;28;20508;-80
2022/07/21 05:19:42;;;;;;;13.83;12.00;;;;;;;;;;5016389;28;20437;-79
2022/07/21 05:22:08;;;;;;;11.63;10.57;;;;;;;;;;5016850;28;20426;-79
2022/07/21 05:24:34;;;;;;;12.73;10.90;;;;;;;;;;5017929;28;20468;-76
2022/07/21 05:27:00;;;;;;;12.47;11.20;;;;;;;;;;5018423;28;20425;-79
2022/07/21 05:29:26;;;;;;;12.87;11.70;;;;;;;;;;5023244;28;20431;-78
2022/07/21 05:31:52;;;;;;;12.67;11.47;;;;;;;;;;5017612;28;20423;-79
2022/07/21 05:34:18;;;;;;;13.77;11.63;;;;;;;;;;5018206;28;20427;-75
2022/07/21 05:36:44;;;;;;;12.70;11.40;;;;;;;;;;5016603;28;20425;-78
2022/07/21 05:39:10;;;;;;;16.03;11.43;;;;;;;;;;5017226;28;20464;-80
2022/07/21 05:41:36;;;;;;;11.27;10.27;;;;;;;;;;5016726;28;20423;-79
2022/07/21 05:44:02;;;;;;;14.07;12.33;;;;;;;;;;5015929;28;20514;-76
2022/07/21 05:46:28;;;;;;;11.37;10.27;;;;;;;;;;5016387;28;20419;-78
2022/07/21 05:48:54;;;;;;;12.43;11.00;;;;;;;;;;5016042;28;20462;-78
2022/07/21 05:51:20;;;;;;;12.53;10.33;;;;;;;;;;5015944;28;20440;-78
2022/07/21 05:53:46;;;;;;;13.00;11.00;;;;;;;;;;5015342;28;20470;-77
2022/07/21 05:56:12;;;;;;;12.23;10.37;;;;;;;;;;5015820;28;20417;-77
2022/07/21 05:58:39;;;;;;;12.13;10.80;;;;;;;;;;5015833;28;20416;-78
2022/07/21 06:01:08;;;;;;;11.37;10.27;;;;;;;;;;4998512;28;20401;-78
2022/07/21 06:03:34;;;;;;;9.83;8.57;;;;;;;;;;5014960;28;20429;-77
2022/07/21 06:06:00;;;;;;;9.67;8.27;;;;;;;;;;4998359;28;20448;-79
2022/07/21 06:08:26;;;;;;;9.40;8.50;;;;;;;;;;4998309;28;20467;-74
2022/07/21 06:10:52;;;;;;;8.70;7.80;;;;;;;;;;5015737;28;20390;-76
2022/07/21 06:13:18;;;;;;;9.97;7.57;;;;;;;;;;5014909;28;20402;-75
2022/07/21 06:15:44;;;;;;;8.90;7.80;;;;;;;;;;5015579;28;20386;-78
2022/07/21 06:18:10;;;;;;;8.83;6.97;;;;;;;;;;5015246;28;20496;-79
2022/07/21 06:20:36;;;;;;;10.67;7.60;;;;;;;;;;5015297;28;20449;-77
2022/07/21 06:23:03;;;;;;;6.07;5.40;;;;;;;;;;5015270;28;20434;-76
2022/07/21 06:25:29;;;;;;;5.80;5.20;;;;;;;;;;5015500;28;20467;-75
2022/07/21 06:27:55;;;;;;;5.70;5.20;;;;;;;;;;5014713;28;20989;-77
2022/07/21 06:30:21;;;;;;;5.90;5.40;;;;;;;;;;5014854;28;20450;-79
2022/07/21 06:32:46;;;;;;;5.63;5.13;;;;;;;;;;4997284;28;20518;-75
2022/07/21 06:35:12;;;;;;;6.53;5.90;;;;;;;;;;4997969;28;20418;-78
2022/07/21 06:37:38;;;;;;;6.23;4.77;;;;;;;;;;5015916;28;20424;-74
2022/07/21 06:40:05;;;;;;;5.13;4.73;;;;;;;;;;5014789;28;20424;-78
2022/07/21 06:42:31;;;;;;;5.23;4.73;;;;;;;;;;5014788;28;20416;-74
2022/07/21 06:44:57;;;;;;;6.80;4.83;;;;;;;;;;5014886;28;20432;-79
2022/07/21 06:47:23;;;;;;;5.50;5.10;;;;;;;;;;5015080;28;20446;-80
2022/07/21 06:49:49;;;;;;;4.73;4.33;;;;;;;;;;4998525;28;20422;-77
2022/07/21 06:52:15;;;;;;;4.67;4.30;;;;;;;;;;5017610;28;20422;-78
2022/07/21 06:54:41;;;;;;;5.23;4.63;;;;;;;;;;5014679;28;20441;-78
2022/07/21 06:57:07;;;;;;;5.27;4.57;;;;;;;;;;5014678;28;20751;-78
2022/07/21 06:59:33;;;;;;;4.77;4.20;;;;;;;;;;5014287;28;20476;-75
2022/07/21 07:01:59;;;;;;;5.63;5.03;;;;;;;;;;5014204;28;20415;-78
2022/07/21 07:04:25;;;;;;;6.10;5.53;;;;;;;;;;4996563;28;20486;-77
2022/07/21 07:06:53;;;;;;;5.97;5.40;;;;;;;;;;5014503;28;20465;-79
2022/07/21 07:09:19;;;;;;;6.03;5.47;;;;;;;;;;5014275;28;20507;-75
2022/07/21 07:11:46;;;;;;;6.03;5.43;;;;;;;;;;5014202;28;20442;-78
2022/07/21 07:14:13;;;;;;;8.70;7.03;;;;;;;;;;5013830;28;20449;-76
2022/07/21 07:16:39;;;;;;;6.77;6.17;;;;;;;;;;5014263;28;20407;-79
2022/07/21 07:19:05;;;;;;;6.60;5.90;;;;;;;;;;5014299;28;20506;-80
2022/07/21 07:21:31;;;;;;;7.07;6.10;;;;;;;;;;4996107;28;20962;-76
2022/07/21 07:23:57;;;;;;;5.40;4.93;;;;;;;;;;5013820;28;20452;-79
2022/07/21 07:26:23;;;;;;;5.57;5.07;;;;;;;;;;5013933;28;20426;-77
2022/07/21 07:28:49;;;;;;;12.30;6.27;;;;;;;;;;5014254;28;20905;-78
2022/07/21 07:31:15;;;;;;;8.50;5.80;;;;;;;;;;5014278;28;20415;-80
2022/07/21 07:33:41;;;;;;;5.37;4.80;;;;;;;;;;5014411;28;20439;-77
2022/07/21 07:36:10;;;;;;;6.40;5.20;;;;;;;;;;5014346;28;20414;-77
2022/07/21 07:38:36;;;;;;;5.70;5.20;;;;;;;;;;5013917;28;20425;-78
2022/07/21 07:41:02;;;;;;;5.43;4.93;;;;;;;;;;5014047;28;20425;-77
2022/07/21 07:43:29;;;;;;;7.90;5.10;;;;;;;;;;5013555;28;20420;-76
2022/07/21 07:45:55;;;;;;;7.83;5.23;;;;;;;;;;5013634;28;20410;-77
2022/07/21 07:48:21;;;;;;;6.20;5.40;;;;;;;;;;5013591;28;20492;-78
2022/07/21 07:50:47;;;;;;;6.83;5.30;;;;;;;;;;5013536;28;20413;-76
2022/07/21 07:53:13;;;;;;;6.63;5.30;;;;;;;;;;5013329;28;20492;-76
2022/07/21 07:55:39;;;;;;;6.40;4.73;;;;;;;;;;4997123;28;20410;-79
2022/07/21 07:58:05;;;;;;;8.60;5.40;;;;;;;;;;5013639;28;20472;-78
2022/07/21 08:00:31;;;;;;;7.00;6.30;;;;;;;;;;5013357;28;20776;-75
2022/07/21 08:02:57;;;;;;;12.67;6.43;;;;;;;;;;5012965;28;20442;-76
2022/07/21 08:05:23;;;;;;;5.60;5.10;;;;;;;;;;5013375;28;20438;-76
2022/07/21 08:07:49;;;;;;;7.40;5.40;;;;;;;;;;5013301;28;20962;-79
2022/07/21 08:10:15;;;;;;;5.60;5.10;;;;;;;;;;4995701;28;20410;-78
2022/07/21 08:12:41;;;;;;;6.77;5.97;;;;;;;;;;5012896;28;20411;-76
2022/07/21 08:15:08;;;;;;;6.30;5.10;;;;;;;;;;5013274;28;20848;-78
2022/07/21 08:17:34;;;;;;;7.60;5.20;;;;;;;;;;5013337;28;20414;-78
2022/07/21 08:20:00;;;;;;;8.03;6.07;;;;;;;;;;5013365;28;20407;-80
2022/07/21 08:22:26;;;;;;;6.30;5.70;;;;;;;;;;5013190;28;20411;-79
2022/07/21 08:24:52;;;;;;;7.80;6.03;;;;;;;;;;5013333;28;20489;-78
2022/07/21 08:27:18;;;;;;;8.40;6.90;;;;;;;;;;5013267;28;20414;-78
2022/07/21 08:29:46;;;;;;;7.57;6.17;;;;;;;;;;4995569;28;20431;-78
2022/07/21 08:32:12;;;;;;;6.30;4.80;;;;;;;;;;5013916;28;20411;-78
2022/07/21 08:34:38;;;;;;;6.10;5.50;;;;;;;;;;5016575;28;20461;-78
2022/07/21 08:37:04;;;;;;;8.70;6.03;;;;;;;;;;5016977;28;20418;-79
2022/07/21 08:39:30;;;;;;;6.10;5.30;;;;;;;;;;5016854;28;20422;-76
2022/07/21 08:41:57;;;;;;;6.60;5.67;;;;;;;;;;5016807;28;20430;-76
2022/07/21 08:44:23;;;;;;;8.37;6.27;;;;;;;;;;5016512;28;20513;-76
2022/07/21 08:46:51;;;;;;;5.10;4.70;;;;;;;;;;5016727;28;20903;-76
2022/07/21 08:49:20;;;;;;;5.57;5.07;;;;;;;;;;5016794;28;20866;-77
2022/07/21 08:51:46;;;;;;;4.90;4.20;;;;;;;;;;5016456;28;20411;-77
2022/07/21 08:54:12;;;;;;;6.37;4.40;;;;;;;;;;5016094;28;20489;-77
2022/07/21 08:56:38;;;;;;;5.10;4.60;;;;;;;;;;5016583;28;20406;-77
2022/07/21 08:59:05;;;;;;;5.77;4.50;;;;;;;;;;4998973;28;20410;-78
2022/07/21 09:01:31;;;;;;;7.03;4.70;;;;;;;;;;5016348;28;20512;-75
2022/07/21 09:04:17;;;;;;;4.67;4.27;;;;;;;;;;5015844;28;20434;-78
2022/07/21 09:06:59;;;;;;;5.47;4.43;;;;;;;;;;5016132;28;20922;-78
2022/07/21 09:09:27;;;;;;;5.10;4.07;;;;;;;;;;4998442;28;20490;-77
2022/07/21 09:11:53;;;;;;;5.73;4.57;;;;;;;;;;5016154;28;20417;-77
2022/07/21 09:14:21;;;;;;;9.13;4.53;;;;;;;;;;5015683;28;20505;-76
2022/07/21 09:16:57;;;;;;;4.67;4.20;;;;;;;;;;5016359;28;20430;-77
2022/07/21 09:19:27;;;;;;;6.63;4.40;;;;;;;;;;5016053;28;20409;-76
2022/07/21 09:21:55;;;;;;;6.20;5.00;;;;;;;;;;5015974;28;20804;-77
2022/07/21 09:24:31;;;;;;;6.20;4.53;;;;;;;;;;5015929;28;20979;-75
2022/07/21 09:27:05;;;;;;;5.57;4.60;;;;;;;;;;5015919;28;20803;-75
2022/07/21 09:29:34;;;;;;;9.73;5.10;;;;;;;;;;5015810;28;20466;-78
2022/07/21 09:32:12;;;;;;;4.57;4.10;;;;;;;;;;5015307;28;20414;-76
2022/07/21 09:34:38;;;;;;;5.03;3.67;;;;;;;;;;5018068;28;20434;-78
2022/07/21 09:37:05;;;;;;;4.43;4.03;;;;;;;;;;5011603;28;20429;-76
2022/07/21 09:39:43;;;;;;;7.37;4.40;;;;;;;;;;5003838;28;20412;-74
2022/07/21 09:42:14;;;;;;;7.70;4.00;;;;;;;;;;4998623;28;20423;-76
2022/07/21 09:44:42;;;;;;;7.23;4.30;;;;;;;;;;4995459;28;20428;-76
2022/07/21 09:47:12;;;;;;;3.70;3.00;;;;;;;;;;4995990;28;20772;-76
2022/07/21 09:49:38;;;;;;;9.10;3.60;;;;;;;;;;4995880;28;20470;-75
2022/07/21 09:52:18;;;;;;;9.90;4.90;;;;;;;;;;4995929;28;20416;-76
2022/07/21 09:54:44;;;;;;;4.47;3.70;;;;;;;;;;4995823;28;20514;-77
2022/07/21 09:57:10;;;;;;;3.63;3.33;;;;;;;;;;4995808;28;20486;-75
2022/07/21 09:59:36;;;;;;;5.50;3.80;;;;;;;;;;4995866;28;20431;-76
2022/07/21 10:02:03;;;;;;;4.90;4.40;;;;;;;;;;4995856;28;20427;-77
2022/07/21 10:04:30;;;;;;;4.60;3.80;;;;;;;;;;4995123;28;20455;-76
2022/07/21 10:06:57;;;;;;;6.60;4.30;;;;;;;;;;4995551;28;20454;-75
2022/07/21 10:09:23;;;;;;;4.87;4.37;;;;;;;;;;4995456;28;20462;-74
2022/07/21 10:11:49;;;;;;;5.50;4.00;;;;;;;;;;4995389;28;20910;-77
2022/07/21 10:14:15;;;;;;;4.47;3.93;;;;;;;;;;4995238;28;20454;-74
2022/07/21 10:16:41;;;;;;;5.07;4.00;;;;;;;;;;4995514;28;20407;-77
2022/07/21 10:19:07;;;;;;;8.97;4.90;;;;;;;;;;4978398;28;20416;-75
2022/07/21 10:21:39;;;;;;;5.33;4.30;;;;;;;;;;4995408;28;20454;-76
2022/07/21 10:24:06;;;;;;;5.17;4.60;;;;;;;;;;4995176;28;20435;-75
2022/07/21 10:26:32;;;;;;;7.43;4.80;;;;;;;;;;4998136;28;20423;-76
2022/07/21 10:28:58;;;;;;;5.03;4.30;;;;;;;;;;5010414;28;20474;-74
2022/07/21 10:31:28;;;;;;;8.17;5.03;;;;;;;;;;5013556;28;20460;-76
2022/07/21 10:33:59;;;;;;;6.37;5.10;;;;;;;;;;5005595;28;20492;-77
2022/07/21 10:36:28;;;;;;;6.17;4.90;;;;;;;;;;5002893;28;20979;-77
2022/07/21 10:39:09;;;;;;;6.10;5.37;;;;;;;;;;5001723;28;20427;-76
2022/07/21 10:41:39;;;;;;;7.77;6.40;;;;;;;;;;5013556;28;20426;-75
2022/07/21 10:44:31;;;;;;;6.80;5.87;;;;;;;;;;5013104;28;20529;-75
2022/07/21 10:47:04;;;;;;;7.70;6.80;;;;;;;;;;5009497;28;20442;-75
2022/07/21 10:49:48;;;;;;;7.73;7.00;;;;;;;;;;4996983;28;20466;-76
2022/07/21 10:52:33;;;;;;;11.07;7.17;;;;;;;;;;5019164;28;20494;-75
2022/07/21 10:55:28;;;;;;;7.50;6.40;;;;;;;;;;5011206;28;20501;-76
2022/07/21 10:58:16;;;;;;;8.90;8.00;;;;;;;;;;5012586;28;20426;-76
2022/07/21 11:00:45;;;;;;;10.40;8.90;;;;;;;;;;5013021;28;20512;-78
2022/07/21 11:03:37;;;;;;;9.83;8.93;;;;;;;;;;5011848;28;20842;-76
2022/07/21 11:06:09;;;;;;;13.37;9.40;;;;;;;;;;5006510;28;20438;-78
2022/07/21 11:08:38;;;;;;;14.10;11.40;;;;;;;;;;5013785;28;20935;-78
2022/07/21 11:11:12;;;;;;;17.27;11.43;;;;;;;;;;5013177;28;20767;-78
2022/07/21 11:13:57;;;;;;;16.17;12.30;;;;;;;;;;5012320;28;20483;-75
2022/07/21 11:16:23;;;;;;;20.50;13.13;;;;;;;;;;5011731;28;20462;-75
2022/07/21 11:18:49;;;;;;;23.63;14.43;;;;;;;;;;4994694;28;20442;-74
2022/07/21 11:21:16;;;;;;;17.10;15.30;;;;;;;;;;5011994;28;20431;-74
2022/07/21 11:23:45;;;;;;;16.80;15.10;;;;;;;;;;5012409;28;20980;-74
2022/07/21 11:26:12;;;;;;;22.43;16.70;;;;;;;;;;5010740;28;20783;-77
2022/07/21 11:28:38;;;;;;;20.17;16.70;;;;;;;;;;5003911;28;20468;-77
2022/07/21 11:31:15;;;;;;;23.93;16.83;;;;;;;;;;5012023;28;20472;-76
2022/07/21 11:33:42;;;;;;;19.40;16.20;;;;;;;;;;5012373;28;20407;-77
2022/07/21 11:36:08;;;;;;;16.57;14.93;;;;;;;;;;5012262;28;20410;-76
2022/07/21 11:38:35;;;;;;;20.23;17.30;;;;;;;;;;4994685;28;20453;-76
2022/07/21 11:41:14;;;;;;;20.30;16.70;;;;;;;;;;5011627;28;20430;-76
2022/07/21 11:43:42;;;;;;;25.20;18.30;;;;;;;;;;5012210;28;20442;-76
2022/07/21 11:46:08;;;;;;;21.70;18.03;;;;;;;;;;5011206;28;20772;-76
2022/07/21 11:48:34;;;;;;;26.70;19.63;;;;;;;;;;5012279;28;20466;-75
2022/07/21 11:51:01;;;;;;;22.20;18.40;;;;;;;;;;5011769;28;20437;-76
2022/07/21 11:53:27;;;;;;;20.00;17.90;;;;;;;;;;4993570;28;20429;-75
2022/07/21 11:55:53;;;;;;;21.30;19.10;;;;;;;;;;5012637;28;20427;-76
2022/07/21 11:58:20;;;;;;;21.03;18.00;;;;;;;;;;5012206;28;20458;-75
2022/07/21 12:00:46;;;;;;;24.97;19.47;;;;;;;;;;5011184;28;20422;-76
2022/07/21 12:03:13;;;;;;;23.90;20.23;;;;;;;;;;4994361;28;20439;-75
2022/07/21 12:05:39;;;;;;;24.93;20.93;;;;;;;;;;5011653;28;20442;-75
2022/07/21 12:08:05;;;;;;;23.63;20.90;;;;;;;;;;5016064;28;21089;-75
2022/07/21 12:10:32;;;;;;;23.17;19.83;;;;;;;;;;5014937;28;20461;-76
2022/07/21 12:13:07;;;;;;;26.10;20.30;;;;;;;;;;5015875;28;20439;-76
2022/07/21 12:15:34;;;;;;;23.60;21.03;;;;;;;;;;5015372;28;20427;-76
2022/07/21 12:18:02;;;;;;;22.37;19.90;;;;;;;;;;5015826;28;20423;-76
2022/07/21 12:20:36;;;;;;;27.33;21.07;;;;;;;;;;5015336;28;20535;-75
2022/07/21 12:23:19;;;;;;;24.37;20.93;;;;;;;;;;5015849;28;20445;-75
2022/07/21 12:25:45;;;;;;;21.07;18.97;;;;;;;;;;5016079;28;20512;-75
2022/07/21 12:28:11;;;;;;;20.83;18.63;;;;;;;;;;4992229;28;20549;-75
2022/07/21 12:30:44;;;;;;;24.63;18.43;;;;;;;;;;5009085;28;20445;-76
2022/07/21 12:33:10;;;;;;;21.63;19.33;;;;;;;;;;5015143;28;20448;-76
2022/07/21 12:35:38;;;;;;;24.77;19.70;;;;;;;;;;5015363;28;20795;-76
2022/07/21 12:38:07;;;;;;;23.30;19.47;;;;;;;;;;5014659;28;20481;-74
2022/07/21 12:40:35;;;;;;;24.30;19.50;;;;;;;;;;5015076;28;20488;-75
2022/07/21 12:43:08;;;;;;;30.53;22.20;;;;;;;;;;5015164;28;20901;-74
2022/07/21 12:45:48;;;;;;;26.23;22.23;;;;;;;;;;4996841;28;20482;-75
2022/07/21 12:48:15;;;;;;;26.50;22.73;;;;;;;;;;5014907;28;20479;-75
2022/07/21 12:50:56;;;;;;;25.50;22.73;;;;;;;;;;4997894;28;20626;-75
2022/07/21 12:53:22;;;;;;;29.63;22.93;;;;;;;;;;5013830;28;20974;-77
2022/07/21 12:55:48;;;;;;;36.77;22.30;;;;;;;;;;5015728;28;20429;-76
2022/07/21 12:58:14;;;;;;;32.83;24.00;;;;;;;;;;5014956;28;20887;-74
2022/07/21 13:00:40;;;;;;;29.93;24.80;;;;;;;;;;5014668;28;20453;-77
2022/07/21 13:03:06;;;;;;;32.57;25.17;;;;;;;;;;5014522;28;20821;-75
2022/07/21 13:05:32;;;;;;;40.90;29.17;;;;;;;;;;5014963;28;20417;-76
2022/07/21 13:07:58;;;;;;;32.27;26.83;;;;;;;;;;5013783;28;20463;-75
2022/07/21 13:10:24;;;;;;;28.10;25.17;;;;;;;;;;5015457;28;20429;-76
2022/07/21 13:12:50;;;;;;;33.80;27.97;;;;;;;;;;5014512;28;20442;-76
2022/07/21 13:15:17;;;;;;;37.83;30.13;;;;;;;;;;5014423;28;20422;-76
2022/07/21 13:17:44;;;;;;;36.90;28.67;;;;;;;;;;5014108;28;20460;-74
2022/07/21 13:20:10;;;;;;;21.40;19.07;;;;;;;;;;4980968;28;21013;-75
2022/07/21 13:22:36;;;;;;;19.70;17.20;;;;;;;;;;5013768;28;20458;-74
2022/07/21 13:25:03;;;;;;;18.03;16.30;;;;;;;;;;5014665;28;20419;-76
2022/07/21 13:27:29;;;;;;;12.53;11.23;;;;;;;;;;5014728;28;20454;-75
2022/07/21 13:29:55;;;;;;;16.83;14.43;;;;;;;;;;5004403;28;20443;-75
2022/07/21 13:32:21;;;;;;;15.07;13.60;;;;;;;;;;4996430;28;20440;-75
2022/07/21 13:34:47;;;;;;;13.07;11.73;;;;;;;;;;4994582;28;20442;-76
2022/07/21 13:37:13;;;;;;;14.13;12.70;;;;;;;;;;4994121;28;20910;-75
2022/07/21 13:39:39;;;;;;;15.07;13.57;;;;;;;;;;4977183;28;20439;-75
2022/07/21 13:42:07;;;;;;;14.53;12.97;;;;;;;;;;4994761;28;20410;-75
2022/07/21 13:44:33;;;;;;;16.00;13.70;;;;;;;;;;4993638;28;20456;-75
2022/07/21 13:46:59;;;;;;;16.80;12.20;;;;;;;;;;4994732;28;20449;-75
2022/07/21 13:49:25;;;;;;;15.67;13.20;;;;;;;;;;4994305;28;20557;-77
2022/07/21 13:51:51;;;;;;;14.80;13.50;;;;;;;;;;4994223;28;20459;-76
2022/07/21 13:54:17;;;;;;;17.23;15.47;;;;;;;;;;4993844;28;20501;-76
2022/07/21 13:56:43;;;;;;;16.03;14.43;;;;;;;;;;4994811;28;20815;-76
2022/07/21 13:59:09;;;;;;;18.30;16.37;;;;;;;;;;4993857;28;20899;-77
2022/07/21 14:01:35;;;;;;;17.00;15.30;;;;;;;;;;4994202;28;20429;-78
2022/07/21 14:04:01;;;;;;;19.40;16.43;;;;;;;;;;4993771;28;20526;-75
2022/07/21 14:06:27;;;;;;;20.83;16.07;;;;;;;;;;4994465;28;20486;-76
2022/07/21 14:08:53;;;;;;;20.37;18.33;;;;;;;;;;4993292;28;20840;-77
2022/07/21 14:11:22;;;;;;;22.00;17.33;;;;;;;;;;4994455;28;20437;-77
2022/07/21 14:13:48;;;;;;;19.30;16.73;;;;;;;;;;4993952;28;20808;-75
2022/07/21 14:16:14;;;;;;;22.87;17.57;;;;;;;;;;4993120;28;20812;-75
2022/07/21 14:18:40;;;;;;;19.90;17.80;;;;;;;;;;4977043;28;21196;-75
2022/07/21 14:21:06;;;;;;;19.47;17.47;;;;;;;;;;4993624;28;20442;-75
2022/07/21 14:23:32;;;;;;;21.57;19.33;;;;;;;;;;4993262;28;20422;-75
2022/07/21 14:25:59;;;;;;;19.97;17.77;;;;;;;;;;4976699;28;20775;-73
2022/07/21 14:28:25;;;;;;;22.37;18.53;;;;;;;;;;4993953;28;20480;-75
2022/07/21 14:30:52;;;;;;;27.37;16.83;;;;;;;;;;4999229;28;20888;-75